sensor_id;sensor_type;location;lat;lon;timestamp;P1;durP1;ratioP1;P2;durP2;ratioP2
6378;SDS011;3222;48.858;10.128;2023-12-28T00:00:08;2.40;;;1.97;;
6378;SDS011;3222;48.858;10.128;2023-12-28T00:02:34;2.00;;;1.90;;
6378;SDS011;3222;48.858;10.128;2023-12-28T00:05:00;1.80;;;1.70;;
6378;SDS011;3222;48.858;10.128;2023-12-28T00:07:26;2.20;;;2.00;;
6378;SDS011;3222;48.858;10.128;2023-12-28T00:09:52;2.90;;;1.70;;
6378;SDS011;3222;48.858;10.128;2023-12-28T00:12:17;2.00;;;1.90;;
6378;SDS011;3222;48.858;10.128;2023-12-28T00:14:43;2.30;;;2.10;;
6378;SDS011;3222;48.858;10.128;2023-12-28T00:17:09;2.03;;;1.93;;
6378;SDS011;3222;48.858;10.128;2023-12-28T00:19:35;2.27;;;2.07;;
6378;SDS011;3222;48.858;10.128;2023-12-28T00:22:00;1.90;;;1.80;;
6378;SDS011;3222;48.858;10.128;2023-12-28T00:24:26;2.00;;;1.90;;
6378;SDS011;3222;48.858;10.128;2023-12-28T00:26:52;2.00;;;1.80;;
6378;SDS011;3222;48.858;10.128;2023-12-28T00:29:20;2.10;;;2.00;;
6378;SDS011;3222;48.858;10.128;2023-12-28T00:31:46;2.23;;;2.03;;
6378;SDS011;3222;48.858;10.128;2023-12-28T00:34:11;2.30;;;1.97;;
6378;SDS011;3222;48.858;10.128;2023-12-28T00:36:37;1.90;;;1.80;;
6378;SDS011;3222;48.858;10.128;2023-12-28T00:39:03;2.10;;;2.00;;
6378;SDS011;3222;48.858;10.128;2023-12-28T00:41:29;1.90;;;1.70;;
6378;SDS011;3222;48.858;10.128;2023-12-28T00:43:55;1.87;;;1.77;;
6378;SDS011;3222;48.858;10.128;2023-12-28T00:46:20;2.70;;;1.73;;
6378;SDS011;3222;48.858;10.128;2023-12-28T00:48:46;2.50;;;2.30;;
6378;SDS011;3222;48.858;10.128;2023-12-28T00:51:12;3.10;;;2.80;;
6378;SDS011;3222;48.858;10.128;2023-12-28T00:53:40;2.90;;;2.60;;
6378;SDS011;3222;48.858;10.128;2023-12-28T00:56:06;2.50;;;2.30;;
6378;SDS011;3222;48.858;10.128;2023-12-28T00:58:32;2.23;;;2.03;;
6378;SDS011;3222;48.858;10.128;2023-12-28T01:00:58;2.37;;;2.03;;
6378;SDS011;3222;48.858;10.128;2023-12-28T01:03:24;2.40;;;2.23;;
6378;SDS011;3222;48.858;10.128;2023-12-28T01:05:51;2.00;;;1.90;;
6378;SDS011;3222;48.858;10.128;2023-12-28T01:08:18;2.60;;;2.40;;
6378;SDS011;3222;48.858;10.128;2023-12-28T01:10:44;4.17;;;1.87;;
6378;SDS011;3222;48.858;10.128;2023-12-28T01:13:10;3.47;;;2.80;;
6378;SDS011;3222;48.858;10.128;2023-12-28T01:15:35;2.73;;;2.47;;
6378;SDS011;3222;48.858;10.128;2023-12-28T01:18:01;3.27;;;2.50;;
6378;SDS011;3222;48.858;10.128;2023-12-28T01:20:27;2.50;;;2.30;;
6378;SDS011;3222;48.858;10.128;2023-12-28T01:22:56;2.23;;;2.13;;
6378;SDS011;3222;48.858;10.128;2023-12-28T01:25:21;2.30;;;2.10;;
6378;SDS011;3222;48.858;10.128;2023-12-28T01:27:47;2.30;;;2.10;;
6378;SDS011;3222;48.858;10.128;2023-12-28T01:30:13;2.23;;;2.13;;
6378;SDS011;3222;48.858;10.128;2023-12-28T01:32:39;2.43;;;2.03;;
6378;SDS011;3222;48.858;10.128;2023-12-28T01:35:04;2.00;;;1.90;;
6378;SDS011;3222;48.858;10.128;2023-12-28T01:37:30;2.80;;;1.83;;
6378;SDS011;3222;48.858;10.128;2023-12-28T01:39:59;2.27;;;2.07;;
6378;SDS011;3222;48.858;10.128;2023-12-28T01:42:25;2.00;;;1.90;;
6378;SDS011;3222;48.858;10.128;2023-12-28T01:44:52;2.20;;;2.00;;
6378;SDS011;3222;48.858;10.128;2023-12-28T01:47:18;2.47;;;2.27;;
6378;SDS011;3222;48.858;10.128;2023-12-28T01:49:45;2.13;;;2.00;;
6378;SDS011;3222;48.858;10.128;2023-12-28T01:52:11;2.10;;;2.00;;
6378;SDS011;3222;48.858;10.128;2023-12-28T01:54:37;2.57;;;1.90;;
6378;SDS011;3222;48.858;10.128;2023-12-28T01:57:04;2.30;;;2.10;;
6378;SDS011;3222;48.858;10.128;2023-12-28T01:59:30;1.90;;;1.80;;
6378;SDS011;3222;48.858;10.128;2023-12-28T02:01:57;2.10;;;2.00;;
6378;SDS011;3222;48.858;10.128;2023-12-28T02:04:23;2.40;;;2.20;;
6378;SDS011;3222;48.858;10.128;2023-12-28T02:06:56;2.10;;;2.00;;
6378;SDS011;3222;48.858;10.128;2023-12-28T02:09:24;2.00;;;1.90;;
6378;SDS011;3222;48.858;10.128;2023-12-28T02:11:50;2.00;;;1.90;;
6378;SDS011;3222;48.858;10.128;2023-12-28T02:14:20;2.50;;;2.07;;
6378;SDS011;3222;48.858;10.128;2023-12-28T02:17:03;2.43;;;2.23;;
6378;SDS011;3222;48.858;10.128;2023-12-28T02:22:19;2.20;;;2.00;;
6378;SDS011;3222;48.858;10.128;2023-12-28T02:27:20;2.00;;;1.90;;
6378;SDS011;3222;48.858;10.128;2023-12-28T02:29:46;3.30;;;2.10;;
6378;SDS011;3222;48.858;10.128;2023-12-28T02:32:12;2.10;;;1.90;;
6378;SDS011;3222;48.858;10.128;2023-12-28T02:34:39;1.87;;;1.77;;
6378;SDS011;3222;48.858;10.128;2023-12-28T02:37:08;2.20;;;2.10;;
6378;SDS011;3222;48.858;10.128;2023-12-28T02:39:35;2.13;;;1.93;;
6378;SDS011;3222;48.858;10.128;2023-12-28T02:42:03;2.27;;;2.10;;
6378;SDS011;3222;48.858;10.128;2023-12-28T02:44:29;2.50;;;2.30;;
6378;SDS011;3222;48.858;10.128;2023-12-28T02:46:55;1.97;;;1.87;;
6378;SDS011;3222;48.858;10.128;2023-12-28T02:49:21;3.00;;;2.30;;
6378;SDS011;3222;48.858;10.128;2023-12-28T02:51:48;2.37;;;2.17;;
6378;SDS011;3222;48.858;10.128;2023-12-28T02:54:17;3.30;;;2.37;;
6378;SDS011;3222;48.858;10.128;2023-12-28T02:56:43;2.50;;;2.30;;
6378;SDS011;3222;48.858;10.128;2023-12-28T02:59:09;2.67;;;2.47;;
6378;SDS011;3222;48.858;10.128;2023-12-28T03:01:35;2.73;;;2.53;;
6378;SDS011;3222;48.858;10.128;2023-12-28T03:04:01;2.43;;;2.23;;
6378;SDS011;3222;48.858;10.128;2023-12-28T03:06:27;2.40;;;2.20;;
6378;SDS011;3222;48.858;10.128;2023-12-28T03:08:52;4.83;;;2.40;;
6378;SDS011;3222;48.858;10.128;2023-12-28T03:11:18;2.33;;;2.10;;
6378;SDS011;3222;48.858;10.128;2023-12-28T03:13:45;2.50;;;2.30;;
6378;SDS011;3222;48.858;10.128;2023-12-28T03:16:13;2.53;;;2.10;;
6378;SDS011;3222;48.858;10.128;2023-12-28T03:18:39;2.27;;;2.10;;
6378;SDS011;3222;48.858;10.128;2023-12-28T03:21:04;2.70;;;2.50;;
6378;SDS011;3222;48.858;10.128;2023-12-28T03:23:30;2.43;;;2.23;;
6378;SDS011;3222;48.858;10.128;2023-12-28T03:25:57;2.40;;;2.10;;
6378;SDS011;3222;48.858;10.128;2023-12-28T03:28:23;4.00;;;2.70;;
6378;SDS011;3222;48.858;10.128;2023-12-28T03:30:48;3.83;;;2.67;;
6378;SDS011;3222;48.858;10.128;2023-12-28T03:33:14;3.23;;;2.30;;
6378;SDS011;3222;48.858;10.128;2023-12-28T03:35:40;2.60;;;2.40;;
6378;SDS011;3222;48.858;10.128;2023-12-28T03:38:06;2.27;;;2.10;;
6378;SDS011;3222;48.858;10.128;2023-12-28T03:40:32;2.70;;;2.50;;
6378;SDS011;3222;48.858;10.128;2023-12-28T03:42:57;2.60;;;2.40;;
6378;SDS011;3222;48.858;10.128;2023-12-28T03:45:23;2.40;;;2.20;;
6378;SDS011;3222;48.858;10.128;2023-12-28T03:47:49;2.90;;;2.60;;
6378;SDS011;3222;48.858;10.128;2023-12-28T03:50:16;2.30;;;2.10;;
6378;SDS011;3222;48.858;10.128;2023-12-28T03:52:42;2.50;;;2.30;;
6378;SDS011;3222;48.858;10.128;2023-12-28T03:55:08;2.50;;;2.30;;
6378;SDS011;3222;48.858;10.128;2023-12-28T03:57:34;2.50;;;2.30;;
6378;SDS011;3222;48.858;10.128;2023-12-28T04:00:00;2.50;;;2.30;;
6378;SDS011;3222;48.858;10.128;2023-12-28T04:02:26;2.03;;;1.93;;
6378;SDS011;3222;48.858;10.128;2023-12-28T04:04:56;2.10;;;2.00;;
6378;SDS011;3222;48.858;10.128;2023-12-28T04:07:24;2.40;;;2.20;;
6378;SDS011;3222;48.858;10.128;2023-12-28T04:09:51;2.50;;;2.30;;
6378;SDS011;3222;48.858;10.128;2023-12-28T04:12:17;2.30;;;2.10;;
6378;SDS011;3222;48.858;10.128;2023-12-28T04:14:43;2.20;;;2.00;;
6378;SDS011;3222;48.858;10.128;2023-12-28T04:17:08;2.30;;;2.10;;
6378;SDS011;3222;48.858;10.128;2023-12-28T04:19:34;2.20;;;2.10;;
6378;SDS011;3222;48.858;10.128;2023-12-28T04:22:00;2.40;;;2.20;;
6378;SDS011;3222;48.858;10.128;2023-12-28T04:24:25;2.43;;;2.23;;
6378;SDS011;3222;48.858;10.128;2023-12-28T04:26:52;2.43;;;2.23;;
6378;SDS011;3222;48.858;10.128;2023-12-28T04:29:18;2.77;;;2.50;;
6378;SDS011;3222;48.858;10.128;2023-12-28T04:31:43;2.47;;;2.30;;
6378;SDS011;3222;48.858;10.128;2023-12-28T04:34:10;2.37;;;2.23;;
6378;SDS011;3222;48.858;10.128;2023-12-28T04:36:40;2.50;;;2.30;;
6378;SDS011;3222;48.858;10.128;2023-12-28T04:39:17;2.93;;;2.20;;
6378;SDS011;3222;48.858;10.128;2023-12-28T04:41:43;3.17;;;2.23;;
6378;SDS011;3222;48.858;10.128;2023-12-28T04:44:09;2.23;;;2.10;;
6378;SDS011;3222;48.858;10.128;2023-12-28T04:46:37;2.50;;;2.27;;
6378;SDS011;3222;48.858;10.128;2023-12-28T04:49:06;2.23;;;2.10;;
6378;SDS011;3222;48.858;10.128;2023-12-28T04:51:35;2.40;;;2.20;;
6378;SDS011;3222;48.858;10.128;2023-12-28T04:54:03;2.97;;;2.63;;
6378;SDS011;3222;48.858;10.128;2023-12-28T04:56:29;2.53;;;2.33;;
6378;SDS011;3222;48.858;10.128;2023-12-28T04:58:55;2.80;;;2.40;;
6378;SDS011;3222;48.858;10.128;2023-12-28T05:01:20;2.20;;;2.10;;
6378;SDS011;3222;48.858;10.128;2023-12-28T05:03:48;2.10;;;2.00;;
6378;SDS011;3222;48.858;10.128;2023-12-28T05:06:17;1.90;;;1.80;;
6378;SDS011;3222;48.858;10.128;2023-12-28T05:08:44;2.17;;;2.00;;
6378;SDS011;3222;48.858;10.128;2023-12-28T05:11:10;2.60;;;2.40;;
6378;SDS011;3222;48.858;10.128;2023-12-28T05:13:36;2.60;;;2.40;;
6378;SDS011;3222;48.858;10.128;2023-12-28T05:16:01;2.53;;;2.00;;
6378;SDS011;3222;48.858;10.128;2023-12-28T05:18:28;2.23;;;2.13;;
6378;SDS011;3222;48.858;10.128;2023-12-28T05:20:54;2.33;;;2.13;;
6378;SDS011;3222;48.858;10.128;2023-12-28T05:23:20;2.50;;;2.20;;
6378;SDS011;3222;48.858;10.128;2023-12-28T05:25:45;2.23;;;1.97;;
6378;SDS011;3222;48.858;10.128;2023-12-28T05:28:11;2.17;;;2.00;;
6378;SDS011;3222;48.858;10.128;2023-12-28T05:30:40;2.27;;;2.07;;
6378;SDS011;3222;48.858;10.128;2023-12-28T05:33:06;2.20;;;2.10;;
6378;SDS011;3222;48.858;10.128;2023-12-28T05:35:31;2.83;;;2.00;;
6378;SDS011;3222;48.858;10.128;2023-12-28T05:38:03;2.40;;;2.20;;
6378;SDS011;3222;48.858;10.128;2023-12-28T05:40:29;6.13;;;2.17;;
6378;SDS011;3222;48.858;10.128;2023-12-28T05:42:55;2.00;;;1.90;;
6378;SDS011;3222;48.858;10.128;2023-12-28T05:45:21;2.03;;;1.80;;
6378;SDS011;3222;48.858;10.128;2023-12-28T05:47:47;6.17;;;1.97;;
6378;SDS011;3222;48.858;10.128;2023-12-28T05:50:13;3.33;;;2.00;;
6378;SDS011;3222;48.858;10.128;2023-12-28T05:52:39;2.87;;;2.07;;
6378;SDS011;3222;48.858;10.128;2023-12-28T05:55:04;2.40;;;1.80;;
6378;SDS011;3222;48.858;10.128;2023-12-28T05:57:30;1.50;;;1.50;;
6378;SDS011;3222;48.858;10.128;2023-12-28T05:59:56;2.17;;;1.87;;
6378;SDS011;3222;48.858;10.128;2023-12-28T06:02:23;3.53;;;1.93;;
6378;SDS011;3222;48.858;10.128;2023-12-28T06:04:48;1.53;;;1.43;;
6378;SDS011;3222;48.858;10.128;2023-12-28T06:07:14;3.13;;;1.90;;
6378;SDS011;3222;48.858;10.128;2023-12-28T06:09:40;1.70;;;1.60;;
6378;SDS011;3222;48.858;10.128;2023-12-28T06:12:06;1.90;;;1.80;;
6378;SDS011;3222;48.858;10.128;2023-12-28T06:14:32;3.30;;;2.33;;
6378;SDS011;3222;48.858;10.128;2023-12-28T06:16:57;3.03;;;2.43;;
6378;SDS011;3222;48.858;10.128;2023-12-28T06:19:23;4.07;;;3.13;;
6378;SDS011;3222;48.858;10.128;2023-12-28T06:21:49;7.97;;;4.70;;
6378;SDS011;3222;48.858;10.128;2023-12-28T06:24:15;9.67;;;5.20;;
6378;SDS011;3222;48.858;10.128;2023-12-28T06:26:41;4.03;;;3.50;;
6378;SDS011;3222;48.858;10.128;2023-12-28T06:29:08;4.30;;;3.13;;
6378;SDS011;3222;48.858;10.128;2023-12-28T06:31:37;4.27;;;3.03;;
6378;SDS011;3222;48.858;10.128;2023-12-28T06:34:03;2.40;;;2.20;;
6378;SDS011;3222;48.858;10.128;2023-12-28T06:36:29;2.63;;;2.10;;
6378;SDS011;3222;48.858;10.128;2023-12-28T06:38:56;2.20;;;2.00;;
6378;SDS011;3222;48.858;10.128;2023-12-28T06:41:21;2.53;;;2.00;;
6378;SDS011;3222;48.858;10.128;2023-12-28T06:43:47;2.00;;;1.90;;
6378;SDS011;3222;48.858;10.128;2023-12-28T06:46:13;2.10;;;1.90;;
6378;SDS011;3222;48.858;10.128;2023-12-28T06:48:38;2.60;;;2.40;;
6378;SDS011;3222;48.858;10.128;2023-12-28T06:51:05;2.90;;;2.60;;
6378;SDS011;3222;48.858;10.128;2023-12-28T06:53:32;3.17;;;2.27;;
6378;SDS011;3222;48.858;10.128;2023-12-28T06:55:57;2.50;;;2.30;;
6378;SDS011;3222;48.858;10.128;2023-12-28T06:58:24;2.60;;;2.40;;
6378;SDS011;3222;48.858;10.128;2023-12-28T07:00:49;3.23;;;2.93;;
6378;SDS011;3222;48.858;10.128;2023-12-28T07:03:15;5.93;;;4.83;;
6378;SDS011;3222;48.858;10.128;2023-12-28T07:05:41;8.83;;;6.50;;
6378;SDS011;3222;48.858;10.128;2023-12-28T07:08:07;8.23;;;6.00;;
6378;SDS011;3222;48.858;10.128;2023-12-28T07:10:33;8.10;;;6.83;;
6378;SDS011;3222;48.858;10.128;2023-12-28T07:13:00;7.17;;;5.30;;
6378;SDS011;3222;48.858;10.128;2023-12-28T07:15:26;4.87;;;3.87;;
6378;SDS011;3222;48.858;10.128;2023-12-28T07:17:51;6.43;;;3.60;;
6378;SDS011;3222;48.858;10.128;2023-12-28T07:20:17;5.13;;;4.63;;
6378;SDS011;3222;48.858;10.128;2023-12-28T07:22:43;3.50;;;3.20;;
6378;SDS011;3222;48.858;10.128;2023-12-28T07:25:09;4.23;;;3.43;;
6378;SDS011;3222;48.858;10.128;2023-12-28T07:27:35;4.20;;;3.57;;
6378;SDS011;3222;48.858;10.128;2023-12-28T07:30:01;3.70;;;3.23;;
6378;SDS011;3222;48.858;10.128;2023-12-28T07:32:31;5.33;;;3.30;;
6378;SDS011;3222;48.858;10.128;2023-12-28T07:34:56;4.40;;;3.20;;
6378;SDS011;3222;48.858;10.128;2023-12-28T07:37:24;4.23;;;3.00;;
6378;SDS011;3222;48.858;10.128;2023-12-28T07:39:49;3.97;;;2.97;;
6378;SDS011;3222;48.858;10.128;2023-12-28T07:42:15;3.03;;;2.60;;
6378;SDS011;3222;48.858;10.128;2023-12-28T07:44:41;3.43;;;2.93;;
6378;SDS011;3222;48.858;10.128;2023-12-28T07:47:07;3.60;;;2.93;;
6378;SDS011;3222;48.858;10.128;2023-12-28T07:49:33;2.73;;;2.53;;
6378;SDS011;3222;48.858;10.128;2023-12-28T07:51:59;2.80;;;2.50;;
6378;SDS011;3222;48.858;10.128;2023-12-28T07:54:24;2.70;;;2.50;;
6378;SDS011;3222;48.858;10.128;2023-12-28T07:56:50;3.30;;;3.00;;
6378;SDS011;3222;48.858;10.128;2023-12-28T07:59:16;5.67;;;3.17;;
6378;SDS011;3222;48.858;10.128;2023-12-28T08:01:42;3.03;;;2.77;;
6378;SDS011;3222;48.858;10.128;2023-12-28T08:04:07;3.73;;;3.30;;
6378;SDS011;3222;48.858;10.128;2023-12-28T08:06:33;4.13;;;3.23;;
6378;SDS011;3222;48.858;10.128;2023-12-28T08:08:59;4.27;;;3.23;;
6378;SDS011;3222;48.858;10.128;2023-12-28T08:11:28;2.90;;;2.70;;
6378;SDS011;3222;48.858;10.128;2023-12-28T08:13:54;2.73;;;2.53;;
6378;SDS011;3222;48.858;10.128;2023-12-28T08:16:19;2.93;;;2.63;;
6378;SDS011;3222;48.858;10.128;2023-12-28T08:18:45;3.50;;;2.83;;
6378;SDS011;3222;48.858;10.128;2023-12-28T08:21:11;3.43;;;2.90;;
6378;SDS011;3222;48.858;10.128;2023-12-28T08:23:37;3.33;;;3.00;;
6378;SDS011;3222;48.858;10.128;2023-12-28T08:26:03;3.97;;;2.90;;
6378;SDS011;3222;48.858;10.128;2023-12-28T08:28:30;3.80;;;2.77;;
6378;SDS011;3222;48.858;10.128;2023-12-28T08:30:56;3.10;;;2.60;;
6378;SDS011;3222;48.858;10.128;2023-12-28T08:33:22;2.60;;;2.40;;
6378;SDS011;3222;48.858;10.128;2023-12-28T08:35:48;2.50;;;2.07;;
6378;SDS011;3222;48.858;10.128;2023-12-28T08:38:17;2.03;;;1.93;;
6378;SDS011;3222;48.858;10.128;2023-12-28T08:40:42;2.30;;;2.13;;
6378;SDS011;3222;48.858;10.128;2023-12-28T08:43:09;2.23;;;2.03;;
6378;SDS011;3222;48.858;10.128;2023-12-28T08:45:35;3.00;;;2.27;;
6378;SDS011;3222;48.858;10.128;2023-12-28T08:48:01;2.77;;;2.40;;
6378;SDS011;3222;48.858;10.128;2023-12-28T08:50:27;4.73;;;2.60;;
6378;SDS011;3222;48.858;10.128;2023-12-28T08:52:53;3.50;;;2.60;;
6378;SDS011;3222;48.858;10.128;2023-12-28T08:55:19;3.43;;;3.13;;
6378;SDS011;3222;48.858;10.128;2023-12-28T08:57:45;5.63;;;3.43;;
6378;SDS011;3222;48.858;10.128;2023-12-28T09:00:11;4.03;;;3.60;;
6378;SDS011;3222;48.858;10.128;2023-12-28T09:02:39;17.27;;;7.80;;
6378;SDS011;3222;48.858;10.128;2023-12-28T09:05:06;10.43;;;6.80;;
6378;SDS011;3222;48.858;10.128;2023-12-28T09:07:32;10.13;;;6.00;;
6378;SDS011;3222;48.858;10.128;2023-12-28T09:09:58;10.87;;;7.37;;
6378;SDS011;3222;48.858;10.128;2023-12-28T09:12:24;6.63;;;5.03;;
6378;SDS011;3222;48.858;10.128;2023-12-28T09:14:50;6.00;;;4.13;;
6378;SDS011;3222;48.858;10.128;2023-12-28T09:17:18;8.23;;;4.30;;
6378;SDS011;3222;48.858;10.128;2023-12-28T09:19:47;4.63;;;3.60;;
6378;SDS011;3222;48.858;10.128;2023-12-28T09:22:13;5.20;;;3.87;;
6378;SDS011;3222;48.858;10.128;2023-12-28T09:24:38;3.70;;;3.30;;
6378;SDS011;3222;48.858;10.128;2023-12-28T09:27:04;5.87;;;3.17;;
6378;SDS011;3222;48.858;10.128;2023-12-28T09:29:30;4.63;;;3.37;;
6378;SDS011;3222;48.858;10.128;2023-12-28T09:31:56;43.40;;;31.47;;
6378;SDS011;3222;48.858;10.128;2023-12-28T09:34:22;7.27;;;6.40;;
6378;SDS011;3222;48.858;10.128;2023-12-28T09:36:47;10.97;;;8.50;;
6378;SDS011;3222;48.858;10.128;2023-12-28T09:39:13;9.90;;;7.30;;
6378;SDS011;3222;48.858;10.128;2023-12-28T09:41:39;10.80;;;6.97;;
6378;SDS011;3222;48.858;10.128;2023-12-28T09:44:11;8.00;;;5.73;;
6378;SDS011;3222;48.858;10.128;2023-12-28T09:46:41;6.03;;;4.03;;
6378;SDS011;3222;48.858;10.128;2023-12-28T09:49:08;5.80;;;4.23;;
6378;SDS011;3222;48.858;10.128;2023-12-28T09:51:34;8.03;;;4.53;;
6378;SDS011;3222;48.858;10.128;2023-12-28T09:54:00;5.40;;;4.43;;
6378;SDS011;3222;48.858;10.128;2023-12-28T09:56:28;6.23;;;4.43;;
6378;SDS011;3222;48.858;10.128;2023-12-28T09:58:54;8.07;;;4.77;;
6378;SDS011;3222;48.858;10.128;2023-12-28T10:01:21;25.63;;;10.43;;
6378;SDS011;3222;48.858;10.128;2023-12-28T10:03:47;80.20;;;29.20;;
6378;SDS011;3222;48.858;10.128;2023-12-28T10:06:16;71.47;;;26.93;;
6378;SDS011;3222;48.858;10.128;2023-12-28T10:08:51;49.17;;;19.20;;
6378;SDS011;3222;48.858;10.128;2023-12-28T10:11:17;38.97;;;17.23;;
6378;SDS011;3222;48.858;10.128;2023-12-28T10:13:43;23.93;;;12.10;;
6378;SDS011;3222;48.858;10.128;2023-12-28T10:16:11;16.70;;;8.30;;
6378;SDS011;3222;48.858;10.128;2023-12-28T10:18:40;9.23;;;6.33;;
6378;SDS011;3222;48.858;10.128;2023-12-28T10:21:10;8.97;;;5.53;;
6378;SDS011;3222;48.858;10.128;2023-12-28T10:23:37;8.67;;;5.27;;
6378;SDS011;3222;48.858;10.128;2023-12-28T10:26:04;12.07;;;8.57;;
6378;SDS011;3222;48.858;10.128;2023-12-28T10:28:34;12.47;;;9.60;;
6378;SDS011;3222;48.858;10.128;2023-12-28T10:31:04;8.93;;;6.70;;
6378;SDS011;3222;48.858;10.128;2023-12-28T10:33:37;11.40;;;7.67;;
6378;SDS011;3222;48.858;10.128;2023-12-28T10:36:06;9.47;;;7.37;;
6378;SDS011;3222;48.858;10.128;2023-12-28T10:38:37;6.37;;;4.63;;
6378;SDS011;3222;48.858;10.128;2023-12-28T10:41:06;7.63;;;4.53;;
6378;SDS011;3222;48.858;10.128;2023-12-28T10:43:35;4.43;;;4.03;;
6378;SDS011;3222;48.858;10.128;2023-12-28T10:46:13;8.73;;;5.57;;
6378;SDS011;3222;48.858;10.128;2023-12-28T10:49:05;7.50;;;5.10;;
6378;SDS011;3222;48.858;10.128;2023-12-28T10:51:38;4.57;;;4.10;;
6378;SDS011;3222;48.858;10.128;2023-12-28T10:57:09;6.80;;;4.80;;
6378;SDS011;3222;48.858;10.128;2023-12-28T11:02:45;6.17;;;4.23;;
6378;SDS011;3222;48.858;10.128;2023-12-28T11:05:13;6.80;;;5.20;;
6378;SDS011;3222;48.858;10.128;2023-12-28T11:07:41;8.63;;;5.27;;
6378;SDS011;3222;48.858;10.128;2023-12-28T11:10:09;8.80;;;5.80;;
6378;SDS011;3222;48.858;10.128;2023-12-28T11:12:35;10.70;;;6.47;;
6378;SDS011;3222;48.858;10.128;2023-12-28T11:15:04;11.47;;;6.90;;
6378;SDS011;3222;48.858;10.128;2023-12-28T11:17:31;12.23;;;7.33;;
6378;SDS011;3222;48.858;10.128;2023-12-28T11:19:58;10.63;;;6.17;;
6378;SDS011;3222;48.858;10.128;2023-12-28T11:22:25;7.27;;;5.67;;
6378;SDS011;3222;48.858;10.128;2023-12-28T11:24:52;6.57;;;4.80;;
6378;SDS011;3222;48.858;10.128;2023-12-28T11:27:18;5.20;;;3.90;;
6378;SDS011;3222;48.858;10.128;2023-12-28T11:29:44;3.90;;;3.27;;
6378;SDS011;3222;48.858;10.128;2023-12-28T11:32:13;3.90;;;3.40;;
6378;SDS011;3222;48.858;10.128;2023-12-28T11:34:39;4.90;;;3.47;;
6378;SDS011;3222;48.858;10.128;2023-12-28T11:37:12;11.17;;;7.17;;
6378;SDS011;3222;48.858;10.128;2023-12-28T11:39:43;4.67;;;3.60;;
6378;SDS011;3222;48.858;10.128;2023-12-28T11:42:10;3.47;;;3.17;;
6378;SDS011;3222;48.858;10.128;2023-12-28T11:44:40;3.97;;;3.50;;
6378;SDS011;3222;48.858;10.128;2023-12-28T11:47:12;3.73;;;3.33;;
6378;SDS011;3222;48.858;10.128;2023-12-28T11:49:45;3.27;;;2.97;;
6378;SDS011;3222;48.858;10.128;2023-12-28T11:52:22;2.70;;;2.50;;
6378;SDS011;3222;48.858;10.128;2023-12-28T11:54:55;3.67;;;3.07;;
6378;SDS011;3222;48.858;10.128;2023-12-28T11:57:21;3.53;;;2.60;;
6378;SDS011;3222;48.858;10.128;2023-12-28T12:00:00;3.10;;;2.70;;
6378;SDS011;3222;48.858;10.128;2023-12-28T12:02:30;3.40;;;2.60;;
6378;SDS011;3222;48.858;10.128;2023-12-28T12:04:55;2.60;;;2.30;;
6378;SDS011;3222;48.858;10.128;2023-12-28T12:07:26;3.73;;;2.77;;
6378;SDS011;3222;48.858;10.128;2023-12-28T12:09:56;4.97;;;2.63;;
6378;SDS011;3222;48.858;10.128;2023-12-28T12:12:22;3.80;;;2.70;;
6378;SDS011;3222;48.858;10.128;2023-12-28T12:14:48;4.10;;;3.27;;
6378;SDS011;3222;48.858;10.128;2023-12-28T12:17:14;3.07;;;2.70;;
6378;SDS011;3222;48.858;10.128;2023-12-28T12:19:40;2.60;;;2.40;;
6378;SDS011;3222;48.858;10.128;2023-12-28T12:22:06;2.63;;;2.43;;
6378;SDS011;3222;48.858;10.128;2023-12-28T12:24:32;2.60;;;2.40;;
6378;SDS011;3222;48.858;10.128;2023-12-28T12:27:00;2.90;;;2.43;;
6378;SDS011;3222;48.858;10.128;2023-12-28T12:29:29;2.73;;;2.43;;
6378;SDS011;3222;48.858;10.128;2023-12-28T12:31:55;3.20;;;2.90;;
6378;SDS011;3222;48.858;10.128;2023-12-28T12:34:21;3.27;;;2.90;;
6378;SDS011;3222;48.858;10.128;2023-12-28T12:36:50;3.53;;;3.00;;
6378;SDS011;3222;48.858;10.128;2023-12-28T12:39:19;2.70;;;2.50;;
6378;SDS011;3222;48.858;10.128;2023-12-28T12:41:45;4.17;;;2.73;;
6378;SDS011;3222;48.858;10.128;2023-12-28T12:44:12;2.87;;;2.67;;
6378;SDS011;3222;48.858;10.128;2023-12-28T12:46:38;2.53;;;2.33;;
6378;SDS011;3222;48.858;10.128;2023-12-28T12:49:05;2.40;;;2.20;;
6378;SDS011;3222;48.858;10.128;2023-12-28T12:51:31;2.30;;;2.17;;
6378;SDS011;3222;48.858;10.128;2023-12-28T12:53:57;2.60;;;2.40;;
6378;SDS011;3222;48.858;10.128;2023-12-28T12:56:24;3.70;;;3.40;;
6378;SDS011;3222;48.858;10.128;2023-12-28T12:58:54;5.10;;;3.47;;
6378;SDS011;3222;48.858;10.128;2023-12-28T13:01:20;4.43;;;3.47;;
6378;SDS011;3222;48.858;10.128;2023-12-28T13:03:46;4.90;;;2.97;;
6378;SDS011;3222;48.858;10.128;2023-12-28T13:06:12;3.03;;;2.73;;
6378;SDS011;3222;48.858;10.128;2023-12-28T13:08:41;2.50;;;2.30;;
6378;SDS011;3222;48.858;10.128;2023-12-28T13:11:07;2.53;;;2.33;;
6378;SDS011;3222;48.858;10.128;2023-12-28T13:13:33;2.73;;;2.40;;
6378;SDS011;3222;48.858;10.128;2023-12-28T13:15:59;3.23;;;2.27;;
6378;SDS011;3222;48.858;10.128;2023-12-28T13:18:27;2.67;;;2.03;;
6378;SDS011;3222;48.858;10.128;2023-12-28T13:20:53;2.30;;;2.10;;
6378;SDS011;3222;48.858;10.128;2023-12-28T13:23:21;2.57;;;2.37;;
6378;SDS011;3222;48.858;10.128;2023-12-28T13:25:47;3.37;;;2.53;;
6378;SDS011;3222;48.858;10.128;2023-12-28T13:28:13;2.50;;;2.30;;
6378;SDS011;3222;48.858;10.128;2023-12-28T13:30:39;2.37;;;2.17;;
6378;SDS011;3222;48.858;10.128;2023-12-28T13:33:05;3.03;;;2.70;;
6378;SDS011;3222;48.858;10.128;2023-12-28T13:35:32;2.40;;;2.20;;
6378;SDS011;3222;48.858;10.128;2023-12-28T13:38:01;3.23;;;2.70;;
6378;SDS011;3222;48.858;10.128;2023-12-28T13:40:27;4.57;;;2.83;;
6378;SDS011;3222;48.858;10.128;2023-12-28T13:42:58;4.57;;;2.57;;
6378;SDS011;3222;48.858;10.128;2023-12-28T13:45:24;2.60;;;2.30;;
6378;SDS011;3222;48.858;10.128;2023-12-28T13:47:50;2.93;;;2.60;;
6378;SDS011;3222;48.858;10.128;2023-12-28T13:50:15;2.53;;;2.43;;
6378;SDS011;3222;48.858;10.128;2023-12-28T13:52:41;3.20;;;2.40;;
6378;SDS011;3222;48.858;10.128;2023-12-28T13:55:07;2.70;;;2.47;;
6378;SDS011;3222;48.858;10.128;2023-12-28T13:57:33;2.93;;;2.63;;
6378;SDS011;3222;48.858;10.128;2023-12-28T13:59:59;2.57;;;2.37;;
6378;SDS011;3222;48.858;10.128;2023-12-28T14:02:37;2.90;;;2.60;;
6378;SDS011;3222;48.858;10.128;2023-12-28T14:05:06;2.93;;;2.63;;
6378;SDS011;3222;48.858;10.128;2023-12-28T14:07:32;4.97;;;3.47;;
6378;SDS011;3222;48.858;10.128;2023-12-28T14:10:00;3.00;;;2.63;;
6378;SDS011;3222;48.858;10.128;2023-12-28T14:12:32;4.37;;;2.90;;
6378;SDS011;3222;48.858;10.128;2023-12-28T14:14:58;3.53;;;2.60;;
6378;SDS011;3222;48.858;10.128;2023-12-28T14:17:24;4.20;;;2.97;;
6378;SDS011;3222;48.858;10.128;2023-12-28T14:19:50;3.87;;;2.90;;
6378;SDS011;3222;48.858;10.128;2023-12-28T14:22:15;3.30;;;2.97;;
6378;SDS011;3222;48.858;10.128;2023-12-28T14:24:41;3.33;;;3.03;;
6378;SDS011;3222;48.858;10.128;2023-12-28T14:27:10;4.80;;;3.20;;
6378;SDS011;3222;48.858;10.128;2023-12-28T14:29:37;3.80;;;3.27;;
6378;SDS011;3222;48.858;10.128;2023-12-28T14:32:03;3.17;;;2.87;;
6378;SDS011;3222;48.858;10.128;2023-12-28T14:34:29;3.77;;;2.80;;
6378;SDS011;3222;48.858;10.128;2023-12-28T14:36:59;14.70;;;2.90;;
6378;SDS011;3222;48.858;10.128;2023-12-28T14:39:28;3.03;;;2.60;;
6378;SDS011;3222;48.858;10.128;2023-12-28T14:41:54;2.47;;;2.27;;
6378;SDS011;3222;48.858;10.128;2023-12-28T14:44:20;3.10;;;2.80;;
6378;SDS011;3222;48.858;10.128;2023-12-28T14:46:46;3.30;;;2.80;;
6378;SDS011;3222;48.858;10.128;2023-12-28T14:49:11;2.93;;;2.50;;
6378;SDS011;3222;48.858;10.128;2023-12-28T14:51:37;2.90;;;2.40;;
6378;SDS011;3222;48.858;10.128;2023-12-28T14:54:03;2.93;;;2.63;;
6378;SDS011;3222;48.858;10.128;2023-12-28T14:56:29;2.73;;;2.53;;
6378;SDS011;3222;48.858;10.128;2023-12-28T14:58:55;4.67;;;3.30;;
6378;SDS011;3222;48.858;10.128;2023-12-28T15:01:21;3.37;;;3.03;;
6378;SDS011;3222;48.858;10.128;2023-12-28T15:03:47;3.70;;;3.40;;
6378;SDS011;3222;48.858;10.128;2023-12-28T15:06:13;4.90;;;3.90;;
6378;SDS011;3222;48.858;10.128;2023-12-28T15:08:39;3.80;;;3.40;;